Time;durP1;ratioP1;P1;durP2;ratioP2;P2;SDS_P1;SDS_P2;PMS_P1;PMS_P2;Temp;Humidity;BMP_temperature;BMP_pressure;BME280_temperature;BME280_humidity;BME280_pressure;Samples;Min_cycle;Max_cycle;Signal;HPM_P1;HPM_P2
2022/06/07 00:02:04;;;;;;;4.80;3.90;;;12.30;99.90;;;;;;5093470;28;20020;-70
2022/06/07 00:04:30;;;;;;;4.90;4.43;;;12.30;99.90;;;;;;5093638;28;20113;-69
2022/06/07 00:06:55;;;;;;;5.85;5.25;;;12.30;99.90;;;;;;5093606;28;20052;-68
2022/06/07 00:09:21;;;;;;;6.15;5.13;;;12.30;99.90;;;;;;5093632;28;20107;-68
2022/06/07 00:11:47;;;;;;;7.70;6.53;;;12.30;99.90;;;;;;5058717;28;20394;-68
2022/06/07 00:14:12;;;;;;;7.50;6.32;;;12.20;99.90;;;;;;5058631;28;20020;-68
2022/06/07 00:16:38;;;;;;;8.43;6.97;;;12.20;99.90;;;;;;5075536;28;20024;-68
2022/06/07 00:19:04;;;;;;;9.15;7.45;;;12.20;99.90;;;;;;5075425;28;20103;-68
2022/06/07 00:21:30;;;;;;;8.73;7.53;;;12.20;99.90;;;;;;5093370;28;20063;-67
2022/06/07 00:23:58;;;;;;;9.40;7.78;;;12.20;99.90;;;;;;5075493;28;20024;-68
2022/06/07 00:26:24;;;;;;;9.00;7.50;;;12.10;99.90;;;;;;5074945;28;20494;-68
2022/06/07 00:28:50;;;;;;;7.50;6.78;;;12.10;99.90;;;;;;5075452;28;20020;-68
2022/06/07 00:31:16;;;;;;;8.95;7.35;;;12.00;99.90;;;;;;5075155;28;20062;-69
2022/06/07 00:33:42;;;;;;;10.68;7.85;;;12.10;99.90;;;;;;5075440;28;20055;-69
2022/06/07 00:36:08;;;;;;;9.88;7.63;;;12.10;99.90;;;;;;5075201;28;20111;-69
2022/06/07 00:38:34;;;;;;;8.75;7.20;;;12.00;99.90;;;;;;5075424;28;20363;-69
2022/06/07 00:41:00;;;;;;;8.35;6.88;;;12.00;99.90;;;;;;5093287;28;20068;-69
2022/06/07 00:43:26;;;;;;;10.23;7.88;;;12.00;99.90;;;;;;5075071;28;20482;-69
2022/06/07 00:45:52;;;;;;;11.75;8.18;;;12.00;99.90;;;;;;5093266;28;20028;-69
2022/06/07 00:48:18;;;;;;;9.85;8.35;;;12.00;99.90;;;;;;5093152;28;20020;-69
2022/06/07 00:51:06;;;;;;;11.68;8.98;;;12.00;99.90;;;;;;5075234;28;20024;-69
2022/06/07 00:53:34;;;;;;;11.43;9.27;;;12.00;99.90;;;;;;5075002;28;20050;-68
2022/06/07 00:56:01;;;;;;;12.45;9.23;;;12.00;99.90;;;;;;5093031;28;20024;-69
2022/06/07 00:58:28;;;;;;;11.40;9.02;;;12.00;99.90;;;;;;5074854;28;20024;-69
2022/06/07 01:00:55;;;;;;;11.02;7.32;;;12.00;99.90;;;;;;5093021;28;20024;-70
2022/06/07 01:03:22;;;;;;;10.35;8.40;;;12.00;99.90;;;;;;5092981;28;20032;-69
2022/06/07 01:05:49;;;;;;;10.90;8.27;;;12.00;99.90;;;;;;5092724;28;20062;-69
2022/06/07 01:11:02;;;;;;;11.90;8.90;;;11.90;99.90;;;;;;5092661;28;20016;-69
2022/06/07 01:13:32;;;;;;;12.80;10.07;;;11.90;99.90;;;;;;5077033;28;20028;-69
2022/06/07 01:16:01;;;;;;;12.65;10.30;;;11.80;99.90;;;;;;5079011;28;20371;-69
2022/06/07 01:18:27;;;;;;;11.63;9.02;;;11.90;99.90;;;;;;5062188;28;20028;-69
2022/06/07 01:21:14;;;;;;;14.10;10.68;;;11.90;99.90;;;;;;5078508;28;20104;-69
2022/06/07 01:23:42;;;;;;;15.55;10.65;;;11.90;99.90;;;;;;5096478;28;20110;-69
2022/06/07 01:26:08;;;;;;;12.20;9.75;;;11.80;99.90;;;;;;5096289;28;20044;-69
2022/06/07 01:28:34;;;;;;;17.05;12.00;;;11.80;99.90;;;;;;5096445;28;20385;-69
2022/06/07 01:31:00;;;;;;;15.30;11.52;;;11.80;99.90;;;;;;5096434;28;20095;-69
2022/06/07 01:33:25;;;;;;;12.82;10.55;;;11.80;99.90;;;;;;5078430;28;20474;-68
2022/06/07 01:36:12;;;;;;;14.60;10.70;;;11.80;99.90;;;;;;5078219;28;20486;-69
2022/06/07 01:38:41;;;;;;;15.82;11.60;;;11.70;99.90;;;;;;5096234;28;20153;-68
2022/06/07 01:43:54;;;;;;;15.65;11.88;;;11.60;99.90;;;;;;5095900;28;20089;-69
2022/06/07 01:46:20;;;;;;;17.02;13.25;;;11.60;99.90;;;;;;5096105;28;20112;-70
2022/06/07 01:48:46;;;;;;;15.27;11.10;;;11.60;99.90;;;;;;5096057;28;20107;-68
2022/06/07 01:51:12;;;;;;;14.38;11.73;;;11.50;99.90;;;;;;5096243;28;20397;-68
2022/06/07 01:53:38;;;;;;;18.27;13.63;;;11.50;99.90;;;;;;5095980;28;20466;-67
2022/06/07 01:56:11;;;;;;;14.80;10.80;;;11.50;99.90;;;;;;5077943;28;20050;-69
2022/06/07 01:58:38;;;;;;;13.43;10.27;;;11.50;99.90;;;;;;5078757;28;20482;-68
2022/06/07 02:01:05;;;;;;;19.25;12.00;;;11.40;99.90;;;;;;5077822;28;20051;-68
2022/06/07 02:03:31;;;;;;;13.23;10.70;;;11.30;99.90;;;;;;5077782;28;20020;-67
2022/06/07 02:05:59;;;;;;;12.43;10.25;;;11.30;99.90;;;;;;5061014;28;20471;-68
2022/06/07 02:08:26;;;;;;;18.08;12.20;;;11.30;99.90;;;;;;5095794;28;20016;-68
2022/06/07 02:10:53;;;;;;;19.30;13.60;;;11.30;99.90;;;;;;5077960;28;20020;-69
2022/06/07 02:13:19;;;;;;;14.27;11.32;;;11.30;99.90;;;;;;5077362;28;20035;-69
2022/06/07 02:15:45;;;;;;;13.23;10.82;;;11.30;99.90;;;;;;5077687;28;20525;-69
2022/06/07 02:18:11;;;;;;;13.57;10.88;;;11.20;99.90;;;;;;5077325;28;20169;-69
2022/06/07 02:20:37;;;;;;;14.63;11.75;;;11.20;99.90;;;;;;5095538;28;20074;-69
2022/06/07 02:23:03;;;;;;;17.20;12.43;;;11.10;99.90;;;;;;5095346;28;20028;-70
2022/06/07 02:25:30;;;;;;;15.88;11.98;;;11.10;99.90;;;;;;5095031;28;20032;-69
2022/06/07 02:27:56;;;;;;;15.98;12.45;;;11.10;99.90;;;;;;5077217;28;20024;-69
2022/06/07 02:30:22;;;;;;;14.90;11.52;;;;;;;;;;5077302;28;20364;-69
2022/06/07 02:32:48;;;;;;;18.00;13.55;;;11.10;99.90;;;;;;5060562;28;20027;-69
2022/06/07 02:35:14;;;;;;;17.98;13.63;;;11.10;99.90;;;;;;5077090;28;20020;-69
2022/06/07 02:37:40;;;;;;;17.48;12.98;;;11.10;99.90;;;;;;5095203;28;20099;-69
2022/06/07 02:40:07;;;;;;;18.35;14.15;;;11.00;99.90;;;;;;5060395;28;20024;-69
2022/06/07 02:42:32;;;;;;;16.90;13.38;;;11.00;99.90;;;;;;5094975;28;20027;-68
2022/06/07 02:44:58;;;;;;;21.08;14.48;;;10.90;99.90;;;;;;5077043;28;20120;-69
2022/06/07 02:47:25;;;;;;;19.13;14.38;;;11.00;99.90;;;;;;5060098;28;20393;-69
2022/06/07 02:49:52;;;;;;;22.17;16.05;;;10.80;99.90;;;;;;5094905;28;20020;-69
2022/06/07 02:52:18;;;;;;;27.30;17.25;;;10.80;99.90;;;;;;5076719;28;20024;-69
2022/06/07 02:54:44;;;;;;;25.13;17.67;;;10.80;99.90;;;;;;5076864;28;20024;-69
2022/06/07 02:57:09;;;;;;;20.45;14.73;;;10.70;99.90;;;;;;5094800;28;20098;-69
2022/06/07 02:59:35;;;;;;;21.85;15.77;;;10.70;99.90;;;;;;5076818;28;20063;-69
2022/06/07 03:02:00;;;;;;;19.00;15.15;;;10.70;99.90;;;;;;5076445;28;20024;-69
2022/06/07 03:04:26;;;;;;;18.27;14.18;;;10.70;99.90;;;;;;5094613;28;20020;-69
2022/06/07 03:06:52;;;;;;;22.65;16.20;;;10.70;99.90;;;;;;5094511;28;20028;-69
2022/06/07 03:09:18;;;;;;;20.90;15.77;;;10.60;99.90;;;;;;5094547;28;20016;-69
2022/06/07 03:11:43;;;;;;;19.05;14.52;;;10.60;99.90;;;;;;5059813;28;20024;-69
2022/06/07 03:14:10;;;;;;;18.80;14.75;;;10.50;99.90;;;;;;5076501;28;20537;-68
2022/06/07 03:16:36;;;;;;;20.92;15.52;;;10.40;99.90;;;;;;5094377;28;20027;-69
2022/06/07 03:19:03;;;;;;;19.52;14.65;;;10.50;99.90;;;;;;5094382;28;20103;-70
2022/06/07 03:21:28;;;;;;;21.63;15.60;;;10.50;99.90;;;;;;5076291;28;20028;-70
2022/06/07 03:23:55;;;;;;;21.50;16.02;;;10.50;99.90;;;;;;5076254;28;20024;-69
2022/06/07 03:26:21;;;;;;;19.42;15.77;;;10.50;99.90;;;;;;5093932;28;20055;-70
2022/06/07 03:28:48;;;;;;;19.75;14.57;;;10.50;99.90;;;;;;5094117;28;20038;-70
2022/06/07 03:31:16;;;;;;;19.95;14.63;;;10.50;99.90;;;;;;5076365;28;20470;-68
2022/06/07 03:33:43;;;;;;;23.30;16.80;;;10.50;99.90;;;;;;5076033;28;20036;-69
2022/06/07 03:36:28;;;;;;;26.15;17.58;;;10.60;99.90;;;;;;5075494;28;20031;-70
2022/06/07 03:38:55;;;;;;;23.33;17.13;;;10.60;99.90;;;;;;5093969;28;20056;-70
2022/06/07 03:41:24;;;;;;;27.90;19.60;;;10.70;99.90;;;;;;5093893;28;20026;-69
2022/06/07 03:43:50;;;;;;;24.33;16.20;;;11.00;99.90;;;;;;5093733;28;20103;-69
2022/06/07 03:46:19;;;;;;;24.33;16.05;;;11.10;99.90;;;;;;5093784;28;20107;-70
2022/06/07 03:48:45;;;;;;;19.23;15.00;;;11.20;99.90;;;;;;5093819;28;20433;-69
2022/06/07 03:51:12;;;;;;;21.23;14.98;;;11.30;99.90;;;;;;5075535;28;20020;-70
2022/06/07 03:53:39;;;;;;;22.52;13.90;;;11.40;99.90;;;;;;5075774;28;20099;-70
2022/06/07 03:56:06;;;;;;;14.85;12.35;;;11.50;99.90;;;;;;5093693;28;20020;-69
2022/06/07 03:58:31;;;;;;;16.67;10.95;;;11.70;99.90;;;;;;5075560;28;20024;-69
2022/06/07 04:00:59;;;;;;;13.95;9.93;;;11.90;99.90;;;;;;5075612;28;20519;-69
2022/06/07 04:03:25;;;;;;;15.18;9.40;;;12.00;99.90;;;;;;5075538;28;20145;-69
2022/06/07 04:05:52;;;;;;;15.13;9.48;;;12.30;99.90;;;;;;5093522;28;20486;-69
2022/06/07 04:08:18;;;;;;;15.00;8.65;;;12.40;99.90;;;;;;5075556;28;20474;-68
2022/06/07 04:10:48;;;;;;;11.45;7.85;;;12.50;99.90;;;;;;5075494;28;20105;-69
2022/06/07 04:13:15;;;;;;;8.35;7.35;;;12.50;99.90;;;;;;5093504;28;20020;-69
2022/06/07 04:15:42;;;;;;;12.27;7.40;;;12.60;99.90;;;;;;5075214;28;20501;-69
2022/06/07 04:18:08;;;;;;;10.93;6.53;;;12.60;99.90;;;;;;5075236;28;20020;-70
2022/06/07 04:20:34;;;;;;;11.40;6.88;;;12.70;99.90;;;;;;5093381;28;20013;-69
2022/06/07 04:23:00;;;;;;;9.60;6.28;;;12.80;99.90;;;;;;5093277;28;20016;-69
2022/06/07 04:25:27;;;;;;;8.85;6.00;;;13.00;99.90;;;;;;5093010;28;20025;-69
2022/06/07 04:27:54;;;;;;;7.18;5.47;;;13.20;99.90;;;;;;5075817;28;20028;-70
2022/06/07 04:30:20;;;;;;;9.77;5.85;;;13.30;99.90;;;;;;5093268;28;20501;-69
2022/06/07 04:32:47;;;;;;;8.70;5.78;;;13.50;99.90;;;;;;5093192;28;20020;-69
2022/06/07 04:35:17;;;;;;;6.72;5.15;;;13.70;99.90;;;;;;5093317;28;20023;-70
2022/06/07 04:37:44;;;;;;;8.15;4.35;;;14.40;99.90;;;;;;5075172;28;20055;-70
2022/06/07 04:40:11;;;;;;;8.23;4.63;;;15.50;99.90;;;;;;5058380;28;20431;-69
2022/06/07 04:42:36;;;;;;;8.90;3.80;;;16.20;99.90;;;;;;5058415;28;20478;-69
2022/06/07 04:45:03;;;;;;;9.80;3.88;;;16.60;99.90;;;;;;5075167;28;20043;-70
2022/06/07 04:47:28;;;;;;;6.38;3.40;;;16.30;99.90;;;;;;5093716;28;20028;-70
2022/06/07 04:49:54;;;;;;;8.43;3.38;;;16.40;99.90;;;;;;5097171;28;20100;-69
2022/06/07 04:52:20;;;;;;;4.68;2.97;;;16.30;99.90;;;;;;5097128;28;20020;-69
2022/06/07 04:54:45;;;;;;;9.38;3.20;;;17.00;99.90;;;;;;5079083;28;20031;-67
2022/06/07 04:57:11;;;;;;;8.45;3.05;;;17.20;99.90;;;;;;5078952;28;20035;-69
2022/06/07 04:59:36;;;;;;;5.38;3.03;;;17.10;99.90;;;;;;5078879;28;20028;-68
2022/06/07 05:02:03;;;;;;;8.73;3.65;;;17.00;99.90;;;;;;5078888;28;20502;-69
2022/06/07 05:04:29;;;;;;;9.30;3.03;;;16.80;99.90;;;;;;5079047;28;20045;-68
2022/06/07 05:06:55;;;;;;;6.32;2.90;;;17.10;99.90;;;;;;5079032;28;20093;-69
2022/06/07 05:09:24;;;;;;;7.72;3.53;;;17.20;99.90;;;;;;5061944;28;20053;-69
2022/06/07 05:11:51;;;;;;;8.43;3.35;;;17.20;99.90;;;;;;5096838;28;20024;-69
2022/06/07 05:14:17;;;;;;;9.25;3.30;;;17.30;99.90;;;;;;5096793;28;20016;-69
2022/06/07 05:16:44;;;;;;;5.78;3.20;;;16.70;99.90;;;;;;5061897;28;20181;-68
2022/06/07 05:19:11;;;;;;;6.75;3.40;;;16.20;99.90;;;;;;5078383;28;20063;-69
2022/06/07 05:21:38;;;;;;;6.15;3.40;;;15.70;99.90;;;;;;5078419;28;20028;-69
2022/06/07 05:24:04;;;;;;;12.57;4.38;;;15.60;99.90;;;;;;5062026;28;20145;-69
2022/06/07 05:26:38;;;;;;;4.40;3.00;;;15.60;99.90;;;;;;5061248;28;20044;-69
2022/06/07 05:29:05;;;;;;;9.27;3.53;;;15.60;99.90;;;;;;5078398;28;20020;-68
2022/06/07 05:31:31;;;;;;;6.25;3.10;;;15.40;99.90;;;;;;5078257;28;20398;-68
2022/06/07 05:33:57;;;;;;;6.53;3.45;;;15.50;99.90;;;;;;5078353;28;20073;-69
2022/06/07 05:36:23;;;;;;;8.20;3.63;;;15.40;99.90;;;;;;5078262;28;20024;-69
2022/06/07 05:38:49;;;;;;;7.43;3.53;;;15.40;99.90;;;;;;5096323;28;20048;-69
2022/06/07 05:41:20;;;;;;;5.20;3.40;;;15.40;99.90;;;;;;5078204;28;20028;-69
2022/06/07 05:43:46;;;;;;;7.13;3.38;;;15.40;99.90;;;;;;5096249;28;20390;-69
2022/06/07 05:46:11;;;;;;;6.68;3.45;;;15.50;99.90;;;;;;5077858;28;20028;-68
2022/06/07 05:48:37;;;;;;;7.05;3.17;;;15.50;99.90;;;;;;5078036;28;20070;-68
2022/06/07 05:51:03;;;;;;;5.78;2.90;;;15.70;99.90;;;;;;5061052;28;20017;-68
2022/06/07 05:53:29;;;;;;;9.07;3.42;;;15.70;99.90;;;;;;5095949;28;20084;-68
2022/06/07 05:55:55;;;;;;;6.65;2.78;;;15.80;99.90;;;;;;5095933;28;20428;-69
2022/06/07 05:58:22;;;;;;;5.28;2.60;;;15.70;99.90;;;;;;5095356;28;20600;-69
2022/06/07 06:00:49;;;;;;;8.52;3.30;;;15.70;99.90;;;;;;5077992;28;20073;-70
2022/06/07 06:03:17;;;;;;;5.90;2.97;;;16.00;99.90;;;;;;5094601;28;20541;-70
2022/06/07 06:05:46;;;;;;;7.75;2.90;;;16.60;99.90;;;;;;5088417;28;20028;-70
2022/06/07 06:11:11;;;;;;;7.63;2.55;;;16.70;99.90;;;;;;5077975;28;20023;-69
2022/06/07 06:13:37;;;;;;;7.57;2.53;;;16.60;99.90;;;;;;5093299;28;20518;-69
2022/06/07 06:16:06;;;;;;;8.63;2.58;;;16.20;99.90;;;;;;5077282;28;20410;-70
2022/06/07 06:18:32;;;;;;;6.55;2.58;;;16.20;99.90;;;;;;5060126;28;20028;-69
2022/06/07 06:20:58;;;;;;;5.65;2.42;;;16.50;99.90;;;;;;5060494;28;20032;-69
2022/06/07 06:23:24;;;;;;;8.15;2.50;;;16.60;99.90;;;;;;5075403;28;20461;-69
2022/06/07 06:25:49;;;;;;;4.95;2.70;;;16.60;99.90;;;;;;5074427;28;20048;-69
2022/06/07 06:28:16;;;;;;;5.45;2.60;;;16.50;99.90;;;;;;5091835;28;20020;-69
2022/06/07 06:30:44;;;;;;;8.15;2.58;;;16.50;99.90;;;;;;5067412;28;20075;-69
2022/06/07 06:33:14;;;;;;;6.80;2.40;;;16.40;99.90;;;;;;5091082;28;20482;-69
2022/06/07 06:35:47;;;;;;;4.40;2.20;;;16.40;99.90;;;;;;5045743;28;20451;-69
2022/06/07 06:38:12;;;;;;;7.55;2.50;;;16.50;99.90;;;;;;5076676;28;20016;-70
2022/06/07 06:40:38;;;;;;;7.50;3.00;;;16.50;99.90;;;;;;5075547;28;20107;-64
2022/06/07 06:43:04;;;;;;;5.78;2.35;;;16.50;99.90;;;;;;5100241;28;20417;-64
2022/06/07 06:45:30;;;;;;;7.10;2.30;;;16.50;99.90;;;;;;5066577;28;20020;-65
2022/06/07 06:47:55;;;;;;;4.45;2.15;;;16.40;99.90;;;;;;5094722;28;20020;-63
2022/06/07 06:50:21;;;;;;;6.97;2.00;;;16.50;99.90;;;;;;5084973;28;20028;-64
2022/06/07 06:52:46;;;;;;;5.55;2.20;;;16.60;99.90;;;;;;5093075;28;20103;-64
2022/06/07 06:55:12;;;;;;;5.50;2.35;;;16.80;99.90;;;;;;5093785;28;20016;-63
2022/06/07 06:57:38;;;;;;;5.53;2.05;;;17.30;99.90;;;;;;5090780;28;20471;-64
2022/06/07 07:00:05;;;;;;;7.60;2.15;;;17.50;99.90;;;;;;5093348;28;20028;-64
2022/06/07 07:02:31;;;;;;;4.15;1.83;;;18.00;99.90;;;;;;5075333;28;20066;-64
2022/06/07 07:04:56;;;;;;;3.42;1.63;;;18.90;99.90;;;;;;5089346;28;20109;-64
2022/06/07 07:07:22;;;;;;;5.00;1.70;;;18.90;99.90;;;;;;5093305;28;20032;-64
2022/06/07 07:09:49;;;;;;;8.57;2.15;;;18.80;99.90;;;;;;5093707;28;20095;-66
2022/06/07 07:12:16;;;;;;;6.82;1.98;;;18.90;99.90;;;;;;5093852;28;20711;-64
2022/06/07 07:14:42;;;;;;;5.55;2.08;;;19.30;99.90;;;;;;5093629;28;20475;-64
2022/06/07 07:17:07;;;;;;;3.63;1.80;;;19.60;99.90;;;;;;5094164;28;20054;-64
2022/06/07 07:19:33;;;;;;;6.88;2.10;;;19.90;99.90;;;;;;5086188;28;20479;-64
2022/06/07 07:21:58;;;;;;;4.25;1.70;;;19.50;99.90;;;;;;5071218;28;20035;-64
2022/06/07 07:24:25;;;;;;;4.45;1.90;;;19.20;99.90;;;;;;5075350;28;20028;-63
2022/06/07 07:26:52;;;;;;;5.53;1.80;;;20.20;99.90;;;;;;5069469;28;20411;-63
2022/06/07 07:29:20;;;;;;;7.88;1.73;;;20.90;99.90;;;;;;5070930;28;20399;-64
2022/06/07 07:31:46;;;;;;;9.27;3.13;;;20.70;99.90;;;;;;5072067;28;20439;-64
2022/06/07 07:34:15;;;;;;;9.95;3.45;;;20.70;99.90;;;;;;5072316;28;20016;-63
2022/06/07 07:36:47;;;;;;;4.50;1.70;;;21.00;99.90;;;;;;5073828;28;20116;-64
2022/06/07 07:39:13;;;;;;;3.85;1.70;;;21.10;99.90;;;;;;5071193;28;20034;-63
2022/06/07 07:41:41;;;;;;;5.40;1.83;;;21.60;99.90;;;;;;5073830;28;20107;-63
2022/06/07 07:44:11;;;;;;;5.70;1.92;;;22.30;98.30;;;;;;5071624;28;20452;-63
2022/06/07 07:46:38;;;;;;;4.68;1.75;;;22.20;96.80;;;;;;5073220;28;20028;-63
2022/06/07 07:49:05;;;;;;;2.47;1.77;;;21.80;97.70;;;;;;5072310;28;20035;-63
2022/06/07 07:51:33;;;;;;;4.20;2.08;;;21.50;98.40;;;;;;5073066;28;20470;-63
2022/06/07 07:54:01;;;;;;;4.15;2.00;;;21.80;98.70;;;;;;5077210;28;20159;-63
2022/06/07 07:56:27;;;;;;;3.60;1.92;;;21.90;99.10;;;;;;5066911;28;20541;-62
2022/06/07 07:58:55;;;;;;;5.35;2.22;;;21.60;99.80;;;;;;5066500;28;20032;-63
2022/06/07 08:01:23;;;;;;;6.07;2.22;;;22.00;99.50;;;;;;5073120;28;20067;-63
2022/06/07 08:03:49;;;;;;;8.60;2.10;;;21.80;98.80;;;;;;5071750;28;20083;-63
2022/06/07 08:06:17;;;;;;;6.50;2.17;;;22.30;97.90;;;;;;5072791;28;20032;-63
2022/06/07 08:08:45;;;;;;;4.82;2.00;;;21.80;98.80;;;;;;5065762;28;20117;-63
2022/06/07 08:11:11;;;;;;;4.55;1.95;;;21.90;99.40;;;;;;5054360;28;20035;-63
2022/06/07 08:13:37;;;;;;;4.70;2.00;;;21.80;99.40;;;;;;5072034;28;20032;-63
2022/06/07 08:16:06;;;;;;;3.45;2.10;;;21.90;99.30;;;;;;5072737;28;20031;-63
2022/06/07 08:18:32;;;;;;;5.03;2.28;;;22.90;98.00;;;;;;5072020;28;20441;-63
2022/06/07 08:21:00;;;;;;;5.05;1.92;;;21.90;99.00;;;;;;5071545;28;20078;-63
2022/06/07 08:23:28;;;;;;;5.65;2.20;;;21.60;99.40;;;;;;5053569;28;20094;-63
2022/06/07 08:25:56;;;;;;;6.10;2.20;;;21.60;99.90;;;;;;5078648;28;20494;-63
2022/06/07 08:28:22;;;;;;;5.70;2.30;;;21.60;99.90;;;;;;5092141;28;20020;-63
2022/06/07 08:30:48;;;;;;;3.50;1.75;;;21.00;99.90;;;;;;5089143;28;20557;-63
2022/06/07 08:38:45;;;;;;;3.70;2.38;;;21.20;99.90;;;;;;5092026;28;20028;-63
2022/06/07 08:41:49;;;;;;;5.95;2.10;;;21.10;99.90;;;;;;5091483;28;20090;-63
2022/06/07 08:44:37;;;;;;;5.80;2.15;;;20.80;99.90;;;;;;5081520;28;20024;-63
2022/06/07 08:47:13;;;;;;;6.85;2.38;;;21.90;99.90;;;;;;5091464;28;20039;-63
2022/06/07 08:49:39;;;;;;;4.43;1.90;;;22.40;97.70;;;;;;5075911;28;20020;-63
2022/06/07 08:52:24;;;;;;;4.07;1.85;;;22.70;96.50;;;;;;5053946;28;20029;-63
2022/06/07 08:54:50;;;;;;;6.80;2.10;;;23.50;96.30;;;;;;5079520;28;20028;-64
2022/06/07 08:57:23;;;;;;;6.20;2.08;;;22.90;96.00;;;;;;5073627;28;20028;-64
2022/06/07 08:59:54;;;;;;;6.43;2.33;;;23.80;93.50;;;;;;5091796;28;20417;-63
2022/06/07 09:02:50;;;;;;;7.22;2.38;;;23.50;93.10;;;;;;5073725;28;20031;-63
2022/06/07 09:05:16;;;;;;;3.35;1.83;;;22.90;94.60;;;;;;5092148;28;20028;-64
2022/06/07 09:07:43;;;;;;;7.90;2.30;;;22.50;94.70;;;;;;5090007;28;20505;-64
2022/06/07 09:13:13;;;;;;;4.63;1.90;;;22.90;91.10;;;;;;5091642;28;20085;-64
2022/06/07 09:15:40;;;;;;;6.60;2.08;;;22.80;93.10;;;;;;5075003;28;20474;-64
2022/06/07 09:18:07;;;;;;;3.03;1.80;;;23.60;90.10;;;;;;5073352;28;20024;-64
2022/06/07 09:20:39;;;;;;;4.60;2.05;;;23.00;90.70;;;;;;5092360;28;20474;-64
2022/06/07 09:25:56;;;;;;;7.03;1.85;;;23.30;91.00;;;;;;5106948;27;20909;-65
2022/06/07 09:28:27;;;;;;;4.30;2.00;;;22.90;91.20;;;;;;5107598;28;20042;-64
2022/06/07 09:31:15;;;;;;;6.43;2.05;;;23.30;88.70;;;;;;5109127;28;20027;-63
2022/06/07 09:34:05;;;;;;;3.40;1.60;;;23.10;90.00;;;;;;5107201;28;20482;-63
2022/06/07 09:36:35;;;;;;;7.55;2.03;;;22.50;91.30;;;;;;5106525;28;20042;-63
2022/06/07 09:39:14;;;;;;;4.40;2.00;;;23.00;91.60;;;;;;5111015;28;20065;-63
2022/06/07 09:41:45;;;;;;;4.57;1.90;;;22.30;91.80;;;;;;5110555;28;20081;-63
2022/06/07 09:44:34;;;;;;;4.35;1.88;;;22.90;91.00;;;;;;5110728;28;20110;-62
2022/06/07 09:49:51;;;;;;;4.55;1.90;;;23.40;90.00;;;;;;5090697;28;20303;-63
2022/06/07 09:52:23;;;;;;;4.70;1.77;;;23.10;88.00;;;;;;5089068;28;20532;-63
2022/06/07 09:54:55;;;;;;;2.83;1.83;;;22.50;90.20;;;;;;5069401;28;20060;-63
2022/06/07 09:57:29;;;;;;;8.05;2.28;;;23.20;90.60;;;;;;5079424;28;20028;-64
2022/06/07 10:00:06;;;;;;;6.65;2.22;;;23.60;87.10;;;;;;5089076;28;20530;-63
2022/06/07 10:03:11;;;;;;;3.35;1.90;;;23.10;90.00;;;;;;5089201;28;20049;-64
2022/06/07 10:06:17;;;;;;;4.90;2.05;;;22.60;89.90;;;;;;5088972;28;20485;-63
2022/06/07 10:12:04;;;;;;;4.55;1.88;;;22.80;90.60;;;;;;5106364;27;20747;-63
2022/06/07 10:14:56;;;;;;;4.88;2.00;;;22.20;92.20;;;;;;5106772;28;20516;-63
2022/06/07 10:17:45;;;;;;;5.22;2.15;;;21.60;92.00;;;;;;5109741;28;21421;-63
2022/06/07 10:20:26;;;;;;;4.88;1.88;;;21.40;92.90;;;;;;5089155;28;20478;-63
2022/06/07 10:23:31;;;;;;;3.58;2.00;;;21.40;92.80;;;;;;5099366;28;20032;-64
2022/06/07 10:32:28;;;;;;;4.60;1.77;;;22.70;91.60;;;;;;5085038;27;20405;-62
2022/06/07 10:35:02;;;;;;;4.97;2.10;;;22.40;91.50;;;;;;5066023;28;20446;-64
2022/06/07 10:37:41;;;;;;;3.47;1.80;;;22.40;92.40;;;;;;5072380;28;20021;-67
2022/06/07 10:40:24;;;;;;;3.92;2.03;;;22.30;92.40;;;;;;5066767;28;20064;-68
2022/06/07 10:43:14;;;;;;;5.35;2.08;;;22.10;92.80;;;;;;5069380;28;20056;-69
2022/06/07 10:45:40;;;;;;;4.88;2.10;;;21.90;94.20;;;;;;5052530;28;20486;-68
2022/06/07 10:48:18;;;;;;;3.53;1.77;;;21.70;94.00;;;;;;5068222;28;20059;-69
2022/06/07 10:50:53;;;;;;;5.30;2.03;;;21.40;95.50;;;;;;5070147;28;20018;-67
2022/06/07 10:53:26;;;;;;;8.05;2.15;;;21.00;96.90;;;;;;5069705;28;20039;-68
2022/06/07 10:56:10;;;;;;;3.95;1.95;;;21.20;97.00;;;;;;5052743;28;20040;-68
2022/06/07 10:58:39;;;;;;;3.47;2.10;;;21.10;97.70;;;;;;5061990;28;20089;-67
2022/06/07 11:01:17;;;;;;;6.00;2.10;;;21.50;97.60;;;;;;5067584;28;20024;-70
2022/06/07 11:09:19;;;;;;;6.93;2.30;;;21.00;98.10;;;;;;5068390;28;20025;-69
2022/06/07 11:09:56;;;;;;;3.55;2.08;;;20.90;99.90;;;;;;5048370;28;20025;-69
2022/06/07 11:12:25;;;;;;;6.85;2.40;;;21.30;99.50;;;;;;5064924;28;20495;-70
2022/06/07 11:15:18;;;;;;;5.65;2.35;;;21.50;99.20;;;;;;5051379;28;20036;-69
2022/06/07 11:17:52;;;;;;;5.60;2.20;;;22.00;99.10;;;;;;5074373;28;20083;-68
2022/06/07 11:20:24;;;;;;;4.93;2.10;;;21.70;98.80;;;;;;5065467;28;20029;-71
2022/06/07 11:23:15;;;;;;;4.47;2.00;;;21.50;98.90;;;;;;5059891;28;20505;-70
2022/06/07 11:28:25;;;;;;;2.88;1.77;;;21.60;99.60;;;;;;5064932;28;20337;-72
2022/06/07 11:30:53;;;;;;;6.00;2.58;;;21.90;99.00;;;;;;5041845;28;20079;-71
2022/06/07 11:33:57;;;;;;;5.78;2.30;;;21.90;99.20;;;;;;5049431;28;20055;-71
2022/06/07 11:36:41;;;;;;;4.97;2.40;;;21.70;99.50;;;;;;5048382;28;20120;-71
2022/06/07 11:39:28;;;;;;;5.05;2.40;;;21.70;98.70;;;;;;5042659;28;20405;-71
2022/06/07 11:41:56;;;;;;;4.45;1.95;;;22.30;98.90;;;;;;5046577;28;20060;-72
2022/06/07 11:44:31;;;;;;;4.13;2.30;;;22.00;98.20;;;;;;5039925;28;20113;-74
2022/06/07 11:47:18;;;;;;;6.43;2.42;;;21.50;98.90;;;;;;5040200;28;20075;-72
2022/06/07 11:52:32;;;;;;;3.72;2.33;;;21.30;99.30;;;;;;5119180;27;20116;-66
2022/06/07 11:55:13;;;;;;;4.35;1.90;;;21.10;99.90;;;;;;5090846;28;20112;-68
2022/06/07 11:57:56;;;;;;;4.90;2.35;;;21.20;99.90;;;;;;5073999;28;20032;-69
2022/06/07 12:03:23;;;;;;;5.50;2.00;;;21.10;99.90;;;;;;5089455;27;20105;-68
2022/06/07 12:05:54;;;;;;;3.38;2.17;;;21.00;99.90;;;;;;5064113;28;20051;-69
2022/06/07 12:08:28;;;;;;;3.72;2.30;;;21.30;99.90;;;;;;5052627;28;20476;-70
2022/06/07 12:13:51;;;;;;;5.20;2.35;;;21.60;99.90;;;;;;5152373;27;20103;-68
2022/06/07 12:16:39;;;;;;;5.00;2.00;;;21.70;98.70;;;;;;5130909;27;20023;-70
2022/06/07 12:19:29;;;;;;;2.75;1.95;;;21.80;98.60;;;;;;5117192;27;20465;-71
2022/06/07 12:22:10;;;;;;;7.30;1.90;;;21.80;98.40;;;;;;5132764;27;20038;-71
2022/06/07 12:24:43;;;;;;;4.68;2.00;;;21.70;98.50;;;;;;5127325;28;20024;-71
2022/06/07 12:27:21;;;;;;;4.53;2.10;;;21.50;98.70;;;;;;5113129;28;20106;-72
2022/06/07 12:29:47;;;;;;;5.53;2.28;;;21.20;99.10;;;;;;5131432;27;20488;-70
2022/06/07 12:32:27;;;;;;;4.40;1.90;;;21.20;99.50;;;;;;5126291;27;20031;-70
2022/06/07 12:37:56;;;;;;;6.10;1.98;;;21.40;99.10;;;;;;5090445;27;20437;-71
2022/06/07 12:43:00;;;;;;;8.27;3.15;;;21.30;99.10;;;;;;5060701;28;20369;-71
2022/06/07 12:45:36;;;;;;;2.70;2.13;;;21.90;98.30;;;;;;5058142;28;20040;-71
2022/06/07 12:48:15;;;;;;;5.38;2.22;;;22.30;97.70;;;;;;5060273;28;20029;-71
2022/06/07 12:50:45;;;;;;;4.82;2.10;;;22.90;97.60;;;;;;5049261;28;20083;-72
2022/06/07 12:53:22;;;;;;;4.97;2.00;;;22.50;97.00;;;;;;5063333;28;20029;-70
2022/06/07 12:55:58;;;;;;;4.72;2.10;;;22.10;98.00;;;;;;5048938;28;20539;-72
2022/06/07 12:58:28;;;;;;;2.53;2.10;;;21.90;98.50;;;;;;5049231;28;20495;-70
2022/06/07 13:00:55;;;;;;;2.53;1.90;;;21.70;98.50;;;;;;5048204;28;20377;-71
2022/06/07 13:03:25;;;;;;;5.80;2.25;;;21.80;99.60;;;;;;5044461;28;20040;-71
2022/06/07 13:05:57;;;;;;;4.40;2.10;;;21.60;99.70;;;;;;5023642;28;20024;-71
2022/06/07 13:08:25;;;;;;;7.72;2.40;;;21.60;99.90;;;;;;5014126;28;20029;-69
2022/06/07 13:10:51;;;;;;;7.05;2.30;;;21.40;99.90;;;;;;5048896;28;20017;-70
2022/06/07 13:13:23;;;;;;;3.65;2.17;;;21.40;99.90;;;;;;5048525;28;20029;-70
2022/06/07 13:16:00;;;;;;;4.97;2.27;;;21.60;99.90;;;;;;5044542;28;20049;-69
2022/06/07 13:18:32;;;;;;;6.40;3.22;;;21.50;99.90;;;;;;5030369;28;20797;-70
2022/06/07 13:21:19;;;;;;;7.85;3.17;;;21.50;99.90;;;;;;5045562;28;20072;-71
2022/06/07 13:23:50;;;;;;;7.95;2.72;;;21.60;99.80;;;;;;5048977;28;20472;-71
2022/06/07 13:26:24;;;;;;;3.50;2.55;;;21.60;99.90;;;;;;5047498;28;20021;-70
2022/06/07 13:29:15;;;;;;;5.47;2.72;;;22.00;99.10;;;;;;5050943;28;20503;-70
2022/06/07 13:34:34;;;;;;;3.97;2.53;;;21.90;99.00;;;;;;5006980;28;20403;-69
2022/06/07 13:37:12;;;;;;;6.90;2.72;;;21.90;99.20;;;;;;5005136;28;20022;-69
2022/06/07 13:39:57;;;;;;;6.15;2.70;;;21.80;99.60;;;;;;5000904;28;20426;-70
2022/06/07 13:42:29;;;;;;;4.90;2.00;;;21.70;99.90;;;;;;4990755;28;20416;-69
2022/06/07 13:45:15;;;;;;;3.47;2.17;;;22.00;99.90;;;;;;4986140;28;20319;-71
2022/06/07 13:47:50;;;;;;;6.00;2.20;;;21.80;99.90;;;;;;4978910;28;20117;-67
2022/06/07 13:53:24;;;;;;;5.90;2.50;;;21.50;99.90;;;;;;4975868;28;20019;-66
2022/06/07 13:58:38;;;;;;;6.72;2.22;;;21.40;99.90;;;;;;5049048;28;20889;-68
2022/06/07 14:01:27;;;;;;;4.15;1.70;;;21.50;99.90;;;;;;5034491;28;20468;-66